Ana Sayfa
METAR-TAF:

METAR-TAF

Havaalanları :

Auburn/Lewiston Municipal Airport

Auburn / Lewiston, Maine, Amerika Birleşik Devletleri

Enlem: 44-03N, Boylam: 070-17W, yükseklik: 88 m

Güncel hava durumu gözlemi

Rapor saat 02:56 UTC de 15 dakika önce yapıldı.
Rüzgar kuzeydan 11 kt ve 17 kt'a kadar ani rüzgarlar
Sıcaklık 2°C
Nem 80%
Basınç 1005 hPa
Görüş mesafesi: 16.1 km
1900 ft yükseklikte çok bulutlu
hafif yağmur

METAR: KLEW 190256Z AUTO 01011G17KT 10SM -RA OVC019 02/M01 A2968 RMK AO2 RAB16UPB25E34 SLP059 P0000 60000 T00221011 58021 FZRANO

Saat: 22:11 (03:11 UTC)


TAF: eksik

4.000'den fazla havaalanı için hava durumu gözlemleri ve tahminleri (METAR ve TAF raporları).

Kullanılabilir istasyonlar harita üzerinde sarı ve kırmızı noktalarla gösterilir.

İstasyonun adını görmek için fareyi noktanın üzerinde gezdirin.

Sonrasında hava gözlem ve tahminlerini görmek için tıklayın.

Haritayı değiştirmek için: yaklaştırmak için siyah artı işaretli yeşil düğmeye ve uzaklaştırmak için de eksi işaretli düğmeye hızla tıklayın; bitişik haritalar için yeşil okları kullanın.


METAR-TAF: